createdAt,value
2022-10-17T00:00:31.020Z,16.10
2022-10-17T00:02:57.908Z,16.10
2022-10-17T00:05:26.016Z,16.10
2022-10-17T00:07:53.176Z,16.00
2022-10-17T00:10:20.433Z,16.00
2022-10-17T00:12:47.312Z,16.00
2022-10-17T00:15:17.149Z,16.00
2022-10-17T00:17:43.879Z,16.00
2022-10-17T00:20:11.881Z,15.90
2022-10-17T00:22:40.082Z,15.90
2022-10-17T00:25:07.621Z,15.90
2022-10-17T00:27:35.700Z,15.90
2022-10-17T00:30:03.090Z,15.90
2022-10-17T00:32:30.185Z,15.90
2022-10-17T00:34:58.136Z,15.90
2022-10-17T00:37:24.886Z,15.80
2022-10-17T00:39:53.764Z,15.80
2022-10-17T00:42:20.627Z,15.80
2022-10-17T00:45:07.750Z,15.70
2022-10-17T00:47:36.550Z,15.80
2022-10-17T00:50:05.329Z,15.70
2022-10-17T00:52:32.532Z,15.70
2022-10-17T00:55:06.983Z,15.70
2022-10-17T00:57:33.944Z,15.70
2022-10-17T01:00:04.025Z,15.70
2022-10-17T01:02:30.992Z,15.70
2022-10-17T01:04:58.489Z,15.60
2022-10-17T01:07:25.853Z,15.60
2022-10-17T01:09:52.789Z,15.60
2022-10-17T01:12:25.313Z,15.50
2022-10-17T01:15:07.862Z,15.60
2022-10-17T01:17:45.102Z,15.50
2022-10-17T01:20:34.444Z,15.60
2022-10-17T01:23:17.891Z,15.50
2022-10-17T01:25:56.273Z,15.50
2022-10-17T01:28:58.172Z,15.50
2022-10-17T01:31:32.142Z,15.50
2022-10-17T01:34:04.852Z,15.50
2022-10-17T01:36:38.097Z,15.40
2022-10-17T01:39:14.494Z,15.40
2022-10-17T01:41:44.554Z,15.40
2022-10-17T01:44:17.991Z,15.40
2022-10-17T01:46:49.504Z,15.30
2022-10-17T01:49:21.036Z,15.40
2022-10-17T01:51:51.584Z,15.30
2022-10-17T01:54:23.068Z,15.30
2022-10-17T01:56:54.565Z,15.20
2022-10-17T01:59:24.838Z,15.20
2022-10-17T02:01:55.341Z,15.20
2022-10-17T02:04:22.244Z,15.20
2022-10-17T02:06:49.028Z,15.20
2022-10-17T02:09:21.806Z,15.20
2022-10-17T02:12:00.055Z,15.20
2022-10-17T02:14:36.187Z,15.10
2022-10-17T02:17:12.480Z,15.10
2022-10-17T02:19:50.265Z,15.10
2022-10-17T02:22:22.893Z,15.10
2022-10-17T02:24:54.688Z,15.10
2022-10-17T02:27:31.609Z,15.00
2022-10-17T02:30:03.838Z,15.00
2022-10-17T02:32:39.534Z,15.00
2022-10-17T02:35:09.402Z,14.90
2022-10-17T02:37:36.560Z,14.90
2022-10-17T02:40:04.978Z,14.90
2022-10-17T02:42:32.563Z,14.90
2022-10-17T02:45:01.725Z,14.90
2022-10-17T02:47:34.892Z,14.90
2022-10-17T02:50:01.693Z,14.90
2022-10-17T02:52:35.270Z,14.90
2022-10-17T02:55:08.821Z,14.90
2022-10-17T02:57:38.777Z,14.80
2022-10-17T03:00:09.108Z,14.70
2022-10-17T03:02:42.111Z,14.70
2022-10-17T03:05:09.365Z,14.80
2022-10-17T03:07:36.084Z,14.70
2022-10-17T03:10:03.023Z,14.80
2022-10-17T03:12:29.883Z,14.70
2022-10-17T03:14:56.933Z,14.60
2022-10-17T03:17:24.091Z,14.70
2022-10-17T03:19:52.174Z,14.60
2022-10-17T03:22:19.141Z,14.70
2022-10-17T03:24:45.861Z,14.70
2022-10-17T03:27:12.608Z,14.70
2022-10-17T03:29:39.502Z,14.60
2022-10-17T03:32:06.250Z,14.60
2022-10-17T03:34:33.086Z,14.60
2022-10-17T03:37:01.216Z,14.50
2022-10-17T03:39:27.979Z,14.50
2022-10-17T03:41:54.688Z,14.60
2022-10-17T03:44:21.474Z,14.60
2022-10-17T03:46:48.198Z,14.50
2022-10-17T03:49:15.000Z,14.50
2022-10-17T03:51:41.745Z,14.50
2022-10-17T03:54:09.877Z,14.50
2022-10-17T03:56:36.612Z,14.50
2022-10-17T03:59:03.638Z,14.50
2022-10-17T04:01:30.513Z,14.50
2022-10-17T04:03:57.584Z,14.50
2022-10-17T04:06:24.430Z,14.50
2022-10-17T04:08:51.158Z,14.50
2022-10-17T04:11:20.902Z,14.50
2022-10-17T04:13:48.334Z,14.40
2022-10-17T04:16:16.941Z,14.20
2022-10-17T04:18:44.173Z,14.20
2022-10-17T04:21:11.506Z,14.30
2022-10-17T04:23:38.858Z,14.30
2022-10-17T04:26:06.823Z,14.30
2022-10-17T04:28:35.893Z,14.30
2022-10-17T04:31:04.602Z,14.30
2022-10-17T04:33:32.557Z,14.20
2022-10-17T04:36:00.242Z,14.20
2022-10-17T04:38:28.649Z,14.30
2022-10-17T04:40:57.509Z,14.30
2022-10-17T04:43:24.232Z,14.30
2022-10-17T04:45:52.268Z,14.30
2022-10-17T04:48:19.137Z,14.30
2022-10-17T04:50:53.598Z,14.20
2022-10-17T04:53:20.441Z,14.20
2022-10-17T04:55:47.180Z,14.20
2022-10-17T04:58:14.060Z,14.20
2022-10-17T05:00:40.962Z,14.20
2022-10-17T05:03:09.139Z,14.10
2022-10-17T05:05:37.769Z,14.10
2022-10-17T05:08:04.979Z,14.10
2022-10-17T05:10:35.938Z,14.10
2022-10-17T05:13:02.725Z,14.10
2022-10-17T05:15:29.448Z,14.00
2022-10-17T05:17:56.577Z,14.00
2022-10-17T05:20:25.453Z,14.00
2022-10-17T05:22:52.210Z,14.00
2022-10-17T05:25:19.009Z,14.00
2022-10-17T05:27:46.021Z,14.00
2022-10-17T05:30:12.895Z,13.90
2022-10-17T05:32:39.797Z,13.90
2022-10-17T05:35:07.217Z,13.90
2022-10-17T05:37:35.337Z,13.90
2022-10-17T05:40:02.260Z,13.80
2022-10-17T05:42:29.361Z,13.90
2022-10-17T05:44:56.290Z,13.90
2022-10-17T05:47:23.004Z,13.80
2022-10-17T05:49:52.332Z,13.80
2022-10-17T05:52:19.534Z,13.90
2022-10-17T05:54:47.655Z,13.80
2022-10-17T05:57:14.519Z,13.90
2022-10-17T05:59:41.290Z,13.90
2022-10-17T06:02:09.754Z,13.90
2022-10-17T06:04:36.513Z,13.90
2022-10-17T06:07:03.299Z,13.90
2022-10-17T06:09:30.238Z,13.90
2022-10-17T06:11:58.393Z,13.80
2022-10-17T06:14:25.228Z,13.80
2022-10-17T06:16:52.006Z,13.80
2022-10-17T06:19:18.888Z,13.90
2022-10-17T06:21:45.653Z,13.80
2022-10-17T06:24:12.448Z,13.80
2022-10-17T06:26:39.204Z,13.80
2022-10-17T06:29:07.891Z,13.80
2022-10-17T06:31:34.666Z,13.80
2022-10-17T06:34:01.573Z,13.80
2022-10-17T06:36:28.325Z,13.80
2022-10-17T06:38:55.044Z,13.80
2022-10-17T06:41:21.830Z,13.70
2022-10-17T06:43:48.540Z,13.80
2022-10-17T06:46:18.174Z,13.80
2022-10-17T06:48:45.125Z,13.80
2022-10-17T06:51:12.448Z,13.80
2022-10-17T06:53:40.581Z,13.80
2022-10-17T06:56:09.296Z,13.70
2022-10-17T06:58:37.856Z,13.80
2022-10-17T07:03:40.211Z,13.80
2022-10-17T07:06:07.592Z,13.80
2022-10-17T07:08:34.298Z,13.90
2022-10-17T07:11:09.298Z,13.90
2022-10-17T07:13:39.167Z,13.90
2022-10-17T07:16:06.613Z,13.90
2022-10-17T07:18:33.372Z,13.90
2022-10-17T07:21:01.628Z,14.00
2022-10-17T07:23:28.422Z,14.00
2022-10-17T07:25:59.728Z,14.00
2022-10-17T07:28:26.515Z,14.10
2022-10-17T07:30:54.427Z,14.10
2022-10-17T07:33:21.863Z,14.10
2022-10-17T07:35:48.578Z,14.20
2022-10-17T07:38:16.705Z,14.20
2022-10-17T07:40:43.419Z,14.20
2022-10-17T07:43:10.134Z,14.20
2022-10-17T07:45:36.889Z,14.30
2022-10-17T07:48:04.008Z,14.40
2022-10-17T07:50:30.838Z,14.40
2022-10-17T07:52:57.990Z,14.50
2022-10-17T07:55:26.075Z,14.60
2022-10-17T07:57:52.934Z,14.60
2022-10-17T08:00:19.980Z,14.70
2022-10-17T08:02:46.730Z,14.70
2022-10-17T08:05:13.608Z,14.70
2022-10-17T08:07:40.520Z,14.70
2022-10-17T08:12:37.174Z,14.80
2022-10-17T08:15:04.669Z,14.80
2022-10-17T08:17:31.411Z,14.80
2022-10-17T08:19:58.170Z,14.80
2022-10-17T08:22:24.884Z,14.90
2022-10-17T08:24:51.600Z,14.90
2022-10-17T08:27:18.373Z,14.90
2022-10-17T08:29:46.685Z,14.90
2022-10-17T08:32:13.944Z,14.90
2022-10-17T08:34:40.754Z,14.90
2022-10-17T08:37:07.565Z,14.90
2022-10-17T08:39:34.373Z,15.00
2022-10-17T08:42:19.053Z,15.00
2022-10-17T08:44:56.110Z,15.00
2022-10-17T08:47:29.370Z,15.00
2022-10-17T08:49:59.259Z,15.00
2022-10-17T08:52:34.976Z,15.10
2022-10-17T08:55:01.946Z,15.10
2022-10-17T08:57:29.183Z,15.20
2022-10-17T08:59:57.540Z,15.20
2022-10-17T09:02:38.781Z,15.20
2022-10-17T09:05:28.078Z,15.20
2022-10-17T09:08:03.657Z,15.30
2022-10-17T09:10:40.632Z,15.30
2022-10-17T09:13:29.585Z,15.30
2022-10-17T09:16:18.225Z,15.30
2022-10-17T09:18:47.809Z,15.30
2022-10-17T09:21:20.769Z,15.30
2022-10-17T09:23:53.298Z,15.40
2022-10-17T09:26:26.561Z,15.40
2022-10-17T09:28:56.533Z,15.40
2022-10-17T09:31:25.920Z,15.40
2022-10-17T09:33:55.624Z,15.50
2022-10-17T09:36:28.610Z,15.50
2022-10-17T09:38:57.085Z,15.50
2022-10-17T09:41:44.880Z,15.50
2022-10-17T09:44:17.721Z,15.50
2022-10-17T09:46:56.777Z,15.60
2022-10-17T09:49:31.525Z,15.60
2022-10-17T09:51:59.000Z,15.60
2022-10-17T09:54:29.563Z,15.70
2022-10-17T09:57:02.513Z,15.70
2022-10-17T09:59:34.882Z,15.70
2022-10-17T10:02:14.977Z,15.70
2022-10-17T10:05:08.538Z,15.80
2022-10-17T10:07:37.782Z,15.80
2022-10-17T10:10:07.520Z,15.80
2022-10-17T10:12:36.083Z,15.90
2022-10-17T10:15:23.065Z,15.90
2022-10-17T10:17:51.226Z,15.90
2022-10-17T10:20:31.032Z,16.00
2022-10-17T10:23:14.924Z,16.00
2022-10-17T10:25:55.341Z,16.00
2022-10-17T10:28:25.944Z,16.00
2022-10-17T10:30:54.181Z,16.10
2022-10-17T10:33:25.181Z,16.10
2022-10-17T10:35:56.450Z,16.10
2022-10-17T10:38:23.906Z,16.10
2022-10-17T10:40:53.350Z,16.10
2022-10-17T10:43:24.081Z,16.20
2022-10-17T10:45:52.169Z,16.20
2022-10-17T10:48:24.836Z,16.20
2022-10-17T10:50:55.789Z,16.30
2022-10-17T10:53:35.153Z,16.30
2022-10-17T10:56:08.073Z,16.30
2022-10-17T10:58:43.025Z,16.30
2022-10-17T11:01:17.244Z,16.40
2022-10-17T11:03:55.870Z,16.40
2022-10-17T11:06:27.762Z,16.40
2022-10-17T11:09:06.279Z,16.50
2022-10-17T11:11:37.323Z,16.50
2022-10-17T11:14:13.775Z,16.50
2022-10-17T11:16:47.333Z,16.50
2022-10-17T11:19:21.416Z,16.50
2022-10-17T11:22:00.787Z,16.60
2022-10-17T11:24:34.481Z,16.60
2022-10-17T11:27:04.790Z,16.60
2022-10-17T11:29:34.606Z,16.70
2022-10-17T11:32:06.814Z,16.70
2022-10-17T11:34:40.914Z,16.70
2022-10-17T11:37:11.505Z,16.80
2022-10-17T11:42:19.810Z,16.80
2022-10-17T11:44:50.920Z,16.80
2022-10-17T11:47:28.385Z,16.90
2022-10-17T11:52:57.233Z,16.90
2022-10-17T11:55:25.968Z,16.90
2022-10-17T11:58:12.826Z,17.00
2022-10-17T12:00:53.010Z,17.00
2022-10-17T12:03:29.721Z,17.00
2022-10-17T12:06:03.367Z,17.00
2022-10-17T12:08:36.128Z,17.10
2022-10-17T12:11:10.077Z,17.10
2022-10-17T12:13:51.643Z,17.10
2022-10-17T12:16:48.859Z,17.10
2022-10-17T12:19:36.968Z,17.10
2022-10-17T12:22:17.105Z,17.20
2022-10-17T12:24:52.442Z,17.20
2022-10-17T12:27:49.708Z,17.20
2022-10-17T12:30:20.740Z,17.20
2022-10-17T12:33:06.261Z,17.30
2022-10-17T12:35:36.821Z,17.30
2022-10-17T12:38:22.874Z,17.30
2022-10-17T12:40:54.882Z,17.30
2022-10-17T12:43:52.397Z,17.30
2022-10-17T12:46:42.218Z,17.30
2022-10-17T12:49:46.758Z,17.40
2022-10-17T12:52:24.880Z,17.40
2022-10-17T12:55:13.965Z,17.40
2022-10-17T12:57:51.344Z,17.40
2022-10-17T13:00:22.894Z,17.50
2022-10-17T13:02:52.274Z,17.50
2022-10-17T13:05:25.702Z,17.50
2022-10-17T13:07:53.161Z,17.50
2022-10-17T13:10:24.812Z,17.50
2022-10-17T13:12:59.668Z,17.50
2022-10-17T13:15:26.610Z,17.50
2022-10-17T13:17:58.174Z,17.50
2022-10-17T13:20:30.457Z,17.60
2022-10-17T13:22:58.802Z,17.60
2022-10-17T13:25:28.092Z,17.60
2022-10-17T13:28:06.523Z,17.60
2022-10-17T13:30:35.629Z,17.60
2022-10-17T13:33:03.403Z,17.60
2022-10-17T13:38:24.363Z,17.60
2022-10-17T13:41:01.194Z,17.60
2022-10-17T13:43:32.853Z,17.70
2022-10-17T13:46:13.772Z,17.70
2022-10-17T13:48:48.953Z,17.70
2022-10-17T13:51:15.721Z,17.70
2022-10-17T13:53:42.499Z,17.70
2022-10-17T13:56:34.720Z,17.70
2022-10-17T13:59:08.032Z,17.70
2022-10-17T14:01:37.035Z,17.80
2022-10-17T14:04:19.406Z,17.70
2022-10-17T14:06:49.680Z,17.70
2022-10-17T14:09:22.062Z,17.70
2022-10-17T14:12:00.528Z,17.70
2022-10-17T14:14:27.998Z,17.70
2022-10-17T14:16:55.031Z,17.70
2022-10-17T14:19:26.475Z,17.80
2022-10-17T14:21:54.341Z,17.70
2022-10-17T14:24:29.805Z,17.80
2022-10-17T14:26:59.706Z,17.80
2022-10-17T14:29:28.035Z,17.70
2022-10-17T14:32:04.601Z,17.80
2022-10-17T14:34:35.397Z,17.80
2022-10-17T14:37:08.341Z,17.80
2022-10-17T14:39:35.224Z,17.80
2022-10-17T14:42:04.491Z,17.80
2022-10-17T14:44:33.760Z,17.80
2022-10-17T14:47:18.221Z,17.80
2022-10-17T14:49:51.645Z,17.80
2022-10-17T14:52:29.632Z,17.90
2022-10-17T14:54:57.871Z,17.90
2022-10-17T14:57:41.644Z,17.90
2022-10-17T15:00:13.558Z,17.90
2022-10-17T15:02:40.318Z,17.90
2022-10-17T15:05:12.854Z,17.90
2022-10-17T15:07:40.460Z,17.90
2022-10-17T15:10:27.151Z,17.90
2022-10-17T15:12:58.776Z,17.90
2022-10-17T15:15:32.342Z,17.90
2022-10-17T15:17:59.124Z,17.90
2022-10-17T15:20:27.438Z,17.90
2022-10-17T15:22:54.476Z,17.90
2022-10-17T15:25:22.638Z,17.90
2022-10-17T15:27:49.332Z,17.90
2022-10-17T15:30:21.788Z,17.90
2022-10-17T15:32:49.708Z,17.90
2022-10-17T15:35:17.430Z,17.90
2022-10-17T15:37:44.838Z,17.90
2022-10-17T15:40:15.672Z,17.90
2022-10-17T15:42:42.471Z,17.90
2022-10-17T15:45:10.588Z,17.90
2022-10-17T15:47:38.858Z,17.90
2022-10-17T15:50:08.446Z,17.90
2022-10-17T15:52:35.200Z,17.90
2022-10-17T15:55:05.089Z,17.90
2022-10-17T15:57:36.279Z,17.90
2022-10-17T16:00:04.477Z,17.90
2022-10-17T16:02:31.201Z,17.90
2022-10-17T16:04:59.761Z,17.90
2022-10-17T16:07:26.472Z,17.90
2022-10-17T16:09:53.242Z,17.90
2022-10-17T16:12:27.452Z,17.90
2022-10-17T16:14:54.437Z,17.90
2022-10-17T16:17:21.162Z,17.90
2022-10-17T16:19:47.920Z,17.90
2022-10-17T16:22:26.264Z,17.90
2022-10-17T16:24:53.184Z,17.90
2022-10-17T16:27:19.975Z,17.90
2022-10-17T16:29:46.939Z,17.90
2022-10-17T16:32:13.705Z,17.90
2022-10-17T16:34:40.460Z,17.90
2022-10-17T16:37:07.177Z,17.90
2022-10-17T16:39:35.339Z,17.90
2022-10-17T16:42:02.061Z,17.80
2022-10-17T16:44:28.788Z,17.80
2022-10-17T16:46:55.541Z,17.80
2022-10-17T16:49:22.272Z,17.80
2022-10-17T16:51:48.996Z,17.80
2022-10-17T16:54:16.035Z,17.80
2022-10-17T16:56:44.122Z,17.70
2022-10-17T16:59:11.391Z,17.70
2022-10-17T17:01:38.120Z,17.70
2022-10-17T17:04:05.017Z,17.70
2022-10-17T17:06:31.832Z,17.70
2022-10-17T17:08:58.598Z,17.60
2022-10-17T17:11:27.030Z,17.60
2022-10-17T17:13:57.338Z,17.60
2022-10-17T17:16:26.018Z,17.60
2022-10-17T17:18:55.413Z,17.60
2022-10-17T17:21:22.409Z,17.60
2022-10-17T17:23:49.439Z,17.60
2022-10-17T17:26:18.041Z,17.50
2022-10-17T17:28:45.062Z,17.50
2022-10-17T17:31:15.869Z,17.50
2022-10-17T17:33:43.422Z,17.50
2022-10-17T17:36:13.274Z,17.50
2022-10-17T17:38:40.098Z,17.50
2022-10-17T17:41:07.210Z,17.50
2022-10-17T17:43:35.310Z,17.50
2022-10-17T17:46:02.380Z,17.40
2022-10-17T17:48:30.479Z,17.40
2022-10-17T17:50:57.364Z,17.40
2022-10-17T17:53:24.126Z,17.30
2022-10-17T17:56:01.281Z,17.30
2022-10-17T17:58:28.020Z,17.30
2022-10-17T18:00:54.873Z,17.20
2022-10-17T18:03:21.744Z,17.20
2022-10-17T18:05:50.054Z,17.20
2022-10-17T18:08:16.977Z,17.20
2022-10-17T18:10:47.871Z,17.20
2022-10-17T18:13:14.781Z,17.20
2022-10-17T18:15:41.698Z,17.20
2022-10-17T18:18:08.428Z,17.20
2022-10-17T18:20:39.146Z,17.10
2022-10-17T18:23:07.230Z,17.10
2022-10-17T18:25:34.080Z,17.10
2022-10-17T18:28:00.982Z,17.00
2022-10-17T18:30:28.979Z,17.00
2022-10-17T18:32:58.912Z,17.00
2022-10-17T18:35:25.777Z,17.00
2022-10-17T18:37:52.584Z,17.00
2022-10-17T18:40:20.760Z,16.90
2022-10-17T18:42:47.574Z,16.90
2022-10-17T18:45:14.515Z,16.90
2022-10-17T18:47:43.909Z,16.90
2022-10-17T18:50:10.660Z,16.80
2022-10-17T18:52:37.485Z,16.80
2022-10-17T18:55:04.909Z,16.80
2022-10-17T18:57:33.415Z,16.80
2022-10-17T19:00:00.453Z,16.80
2022-10-17T19:02:27.249Z,16.80
2022-10-17T19:04:53.994Z,16.80
2022-10-17T19:07:20.735Z,16.70
2022-10-17T19:09:48.716Z,16.70
2022-10-17T19:12:15.705Z,16.70
2022-10-17T19:14:43.984Z,16.60
2022-10-17T19:17:10.757Z,16.60
2022-10-17T19:19:37.483Z,16.60
2022-10-17T19:22:04.245Z,16.60
2022-10-17T19:24:31.128Z,16.60
2022-10-17T19:26:58.904Z,16.60
2022-10-17T19:29:27.688Z,16.50
2022-10-17T19:34:27.834Z,16.50
2022-10-17T19:36:54.623Z,16.40
2022-10-17T19:39:22.530Z,16.40
2022-10-17T19:41:49.564Z,16.40
2022-10-17T19:44:17.019Z,16.40
2022-10-17T19:46:44.298Z,16.40
2022-10-17T19:49:12.594Z,16.40
2022-10-17T19:51:39.613Z,16.30
2022-10-17T19:54:06.354Z,16.30
2022-10-17T19:56:34.269Z,16.30
2022-10-17T19:59:01.156Z,16.30
2022-10-17T20:01:30.282Z,16.30
2022-10-17T20:03:57.247Z,16.30
2022-10-17T20:06:25.395Z,16.30
2022-10-17T20:08:52.600Z,16.30
2022-10-17T20:11:20.780Z,16.30
2022-10-17T20:13:47.855Z,16.30
2022-10-17T20:16:17.421Z,16.20
2022-10-17T20:18:44.436Z,16.20
2022-10-17T20:21:13.051Z,16.20
2022-10-17T20:23:41.521Z,16.20
2022-10-17T20:26:26.443Z,16.10
2022-10-17T20:29:00.297Z,16.00
2022-10-17T20:31:27.110Z,16.10
2022-10-17T20:33:57.954Z,16.10
2022-10-17T20:36:25.009Z,16.10
2022-10-17T20:38:57.883Z,16.10
2022-10-17T20:41:26.023Z,16.10
2022-10-17T20:43:54.639Z,16.10
2022-10-17T20:46:35.929Z,16.10
2022-10-17T20:49:04.750Z,16.00
2022-10-17T20:51:31.515Z,16.00
2022-10-17T20:53:59.865Z,16.00
2022-10-17T20:56:28.827Z,16.00
2022-10-17T20:58:57.292Z,16.00
2022-10-17T21:01:25.311Z,16.00
2022-10-17T21:03:52.762Z,16.00
2022-10-17T21:06:20.027Z,16.00
2022-10-17T21:08:47.457Z,16.00
2022-10-17T21:11:17.561Z,16.00
2022-10-17T21:13:45.176Z,15.90
2022-10-17T21:16:14.012Z,15.90
2022-10-17T21:18:41.515Z,15.90
2022-10-17T21:21:13.504Z,15.90
2022-10-17T21:23:41.492Z,15.90
2022-10-17T21:26:09.048Z,15.80
2022-10-17T21:28:37.641Z,15.80
2022-10-17T21:31:09.393Z,15.80
2022-10-17T21:33:36.131Z,15.80
2022-10-17T21:36:03.040Z,15.80
2022-10-17T21:38:29.836Z,15.80
2022-10-17T21:40:56.593Z,15.80
2022-10-17T21:43:23.595Z,15.70
2022-10-17T21:45:51.672Z,15.60
2022-10-17T21:48:18.465Z,15.70
2022-10-17T21:50:45.245Z,15.70
2022-10-17T21:53:12.029Z,15.70
2022-10-17T21:55:38.784Z,15.70
2022-10-17T21:58:05.552Z,15.70
2022-10-17T22:00:32.293Z,15.70
2022-10-17T22:03:00.974Z,15.70
2022-10-17T22:05:27.844Z,15.70
2022-10-17T22:07:54.558Z,15.70
2022-10-17T22:10:21.389Z,15.60
2022-10-17T22:12:48.101Z,15.60
2022-10-17T22:17:46.537Z,15.60
2022-10-17T22:20:14.818Z,15.60
2022-10-17T22:22:41.619Z,15.60
2022-10-17T22:25:09.186Z,15.60
2022-10-17T22:27:35.902Z,15.60
2022-10-17T22:30:02.695Z,15.60
2022-10-17T22:32:29.433Z,15.50
2022-10-17T22:34:56.193Z,15.50
2022-10-17T22:37:24.416Z,15.50
2022-10-17T22:39:51.188Z,15.50
2022-10-17T22:42:18.003Z,15.50
2022-10-17T22:44:44.730Z,15.50
2022-10-17T22:47:11.457Z,15.50
2022-10-17T22:49:38.190Z,15.50
2022-10-17T22:52:05.183Z,15.40
2022-10-17T22:54:33.241Z,15.40
2022-10-17T22:56:59.932Z,15.30
2022-10-17T22:59:26.665Z,15.40
2022-10-17T23:01:53.424Z,15.40
2022-10-17T23:04:20.167Z,15.40
2022-10-17T23:06:46.926Z,15.30
2022-10-17T23:09:13.964Z,15.30
2022-10-17T23:11:42.132Z,15.30
2022-10-17T23:14:08.900Z,15.30
2022-10-17T23:16:35.665Z,15.30
2022-10-17T23:19:02.413Z,15.30
2022-10-17T23:21:29.147Z,15.30
2022-10-17T23:23:55.947Z,15.10
2022-10-17T23:26:22.672Z,15.00
2022-10-17T23:28:54.153Z,15.10
2022-10-17T23:31:22.055Z,15.20
2022-10-17T23:33:49.690Z,15.20
2022-10-17T23:36:18.538Z,15.10
2022-10-17T23:38:46.307Z,15.10
2022-10-17T23:41:13.731Z,15.20
2022-10-17T23:43:40.862Z,15.20
2022-10-17T23:46:09.331Z,15.10
2022-10-17T23:48:36.191Z,15.10
2022-10-17T23:51:03.431Z,15.00
2022-10-17T23:53:30.590Z,15.10
2022-10-17T23:55:57.449Z,15.10
2022-10-17T23:58:24.313Z,15.10
